Time;durP1;ratioP1;P1;durP2;ratioP2;P2;SDS_P1;SDS_P2;PMS_P1;PMS_P2;Temp;Humidity;BMP_temperature;BMP_pressure;BME280_temperature;BME280_humidity;BME280_pressure;Samples;Min_cycle;Max_cycle;Signal;HPM_P1;HPM_P2
2023/10/14 00:00:27;;;;;;;;;;;;;;;22.77;39.78;99036.19;1087176;47;1671;-79
2023/10/14 00:01:31;;;;;;;;;;;;;;;22.89;39.08;99033.38;1087110;46;1039;-80
2023/10/14 00:02:32;;;;;;;;;;;;;;;22.90;39.74;99024.13;1087418;54;1045;-80
2023/10/14 00:03:33;;;;;;;;;;;;;;;22.96;39.56;99025.00;1087370;54;1066;-80
2023/10/14 00:04:37;;;;;;;;;;;;;;;22.98;40.30;99022.84;1087112;54;1398;-79
2023/10/14 00:05:37;;;;;;;;;;;;;;;23.01;39.81;99015.00;1087119;54;1030;-79
2023/10/14 00:06:41;;;;;;;;;;;;;;;23.06;40.12;99011.50;1087241;54;1122;-79
2023/10/14 00:07:42;;;;;;;;;;;;;;;23.10;39.80;99012.66;1087142;47;1075;-79
2023/10/14 00:08:55;;;;;;;;;;;;;;;23.09;40.05;99008.28;1087196;54;987;-81
2023/10/14 00:09:57;;;;;;;;;;;;;;;23.04;40.79;98998.16;1086936;47;1074;-79
2023/10/14 00:11:05;;;;;;;;;;;;;;;23.12;40.96;99002.34;1087057;54;1462;-78
2023/10/14 00:12:13;;;;;;;;;;;;;;;23.11;41.08;99008.88;1087040;47;1025;-79
2023/10/14 00:13:16;;;;;;;;;;;;;;;23.17;41.11;99007.84;1086860;54;1581;-80
2023/10/14 00:14:18;;;;;;;;;;;;;;;23.23;41.66;99011.50;1087084;54;1047;-79
2023/10/14 00:15:21;;;;;;;;;;;;;;;23.26;41.49;99015.63;1086942;47;1245;-78
2023/10/14 00:16:29;;;;;;;;;;;;;;;23.28;41.64;99006.13;1087073;47;1043;-78
2023/10/14 00:17:41;;;;;;;;;;;;;;;23.31;41.32;99011.03;1086882;54;1133;-79
2023/10/14 00:18:42;;;;;;;;;;;;;;;23.33;41.70;99017.06;1086924;47;1036;-79
2023/10/14 00:19:49;;;;;;;;;;;;;;;23.36;41.46;99013.84;1086663;47;1879;-79
2023/10/14 00:20:51;;;;;;;;;;;;;;;23.37;41.58;99017.38;1086573;47;1008;-79
2023/10/14 00:21:54;;;;;;;;;;;;;;;23.40;41.85;99016.88;1086575;47;955;-79
2023/10/14 00:22:55;;;;;;;;;;;;;;;23.37;41.68;99006.47;1086878;47;1016;-78
2023/10/14 00:24:01;;;;;;;;;;;;;;;23.37;41.95;99011.94;1087106;54;1140;-78
2023/10/14 00:25:01;;;;;;;;;;;;;;;23.39;41.92;99014.41;1086975;54;1386;-79
2023/10/14 00:26:03;;;;;;;;;;;;;;;23.42;41.90;99013.91;1087033;46;1059;-78
2023/10/14 00:27:07;;;;;;;;;;;;;;;23.41;41.67;99014.97;1087528;54;1031;-79
2023/10/14 00:28:12;;;;;;;;;;;;;;;23.38;42.04;99019.03;1087377;46;1011;-79
2023/10/14 00:29:19;;;;;;;;;;;;;;;23.37;41.85;99022.84;1087139;54;1042;-78
2023/10/14 00:30:21;;;;;;;;;;;;;;;23.37;42.02;99011.94;1087616;54;982;-79
2023/10/14 00:31:25;;;;;;;;;;;;;;;23.36;42.33;99019.31;1087543;47;916;-78
2023/10/14 00:32:26;;;;;;;;;;;;;;;23.41;41.86;99013.09;1087474;47;979;-77
2023/10/14 00:33:29;;;;;;;;;;;;;;;23.41;42.05;99018.53;1087645;54;963;-80
2023/10/14 00:34:30;;;;;;;;;;;;;;;23.39;42.25;99015.25;1087484;54;1031;-80
2023/10/14 00:35:39;;;;;;;;;;;;;;;23.43;41.91;99016.34;1087519;47;1332;-79
2023/10/14 00:36:40;;;;;;;;;;;;;;;23.43;41.89;99012.81;1087845;54;911;-81
2023/10/14 00:37:43;;;;;;;;;;;;;;;23.42;42.02;99009.28;1087689;47;922;-80
2023/10/14 00:38:45;;;;;;;;;;;;;;;23.44;42.11;99006.28;1087382;47;1043;-79
2023/10/14 00:40:00;;;;;;;;;;;;;;;23.43;42.11;99010.91;1087399;47;1860;-79
2023/10/14 00:41:01;;;;;;;;;;;;;;;23.39;41.89;98998.88;1087586;54;1111;-79
2023/10/14 00:42:08;;;;;;;;;;;;;;;23.37;42.24;98995.56;1087560;54;1034;-80
2023/10/14 00:43:11;;;;;;;;;;;;;;;23.36;42.37;99005.66;1087531;54;1051;-80
2023/10/14 00:44:14;;;;;;;;;;;;;;;23.29;42.37;98996.03;1087637;54;901;-80
2023/10/14 00:45:20;;;;;;;;;;;;;;;23.24;42.56;98993.25;1086536;47;1343;-79
2023/10/14 00:46:31;;;;;;;;;;;;;;;23.25;42.76;98987.53;1087407;54;1008;-80
2023/10/14 00:47:32;;;;;;;;;;;;;;;23.34;42.37;98987.91;1087274;47;935;-79
2023/10/14 00:48:40;;;;;;;;;;;;;;;23.34;42.75;98993.34;1087360;54;1048;-81
2023/10/14 00:49:42;;;;;;;;;;;;;;;23.36;42.52;98994.78;1087474;47;1060;-80
2023/10/14 00:50:45;;;;;;;;;;;;;;;23.32;42.70;98990.06;1087512;54;1063;-80
2023/10/14 00:51:49;;;;;;;;;;;;;;;23.33;42.42;98987.09;1087282;47;1005;-80
2023/10/14 00:52:57;;;;;;;;;;;;;;;23.38;42.27;98980.88;1087262;54;1019;-79
2023/10/14 00:54:03;;;;;;;;;;;;;;;23.41;42.06;98982.25;1087225;47;995;-80
2023/10/14 00:55:12;;;;;;;;;;;;;;;23.33;42.05;98980.81;1087294;54;1434;-80
2023/10/14 00:56:18;;;;;;;;;;;;;;;23.35;41.36;98984.94;1087183;47;1118;-81
2023/10/14 00:57:20;;;;;;;;;;;;;;;23.35;41.09;98982.22;1087267;47;952;-80
2023/10/14 00:58:28;;;;;;;;;;;;;;;23.35;41.07;98987.66;1086676;54;1181;-80
2023/10/14 00:59:28;;;;;;;;;;;;;;;23.35;41.07;98987.66;1086786;47;1016;-80
2023/10/14 01:00:37;;;;;;;;;;;;;;;23.32;40.73;98982.72;1086992;47;1879;-81
2023/10/14 01:01:55;;;;;;;;;;;;;;;23.33;40.72;98983.56;1087472;54;1031;-81
2023/10/14 01:03:00;;;;;;;;;;;;;;;23.32;40.41;98984.63;1087568;54;1157;-81
2023/10/14 01:04:18;;;;;;;;;;;;;;;23.34;40.42;98979.72;1087336;47;1152;-80
2023/10/14 01:05:21;;;;;;;;;;;;;;;23.31;40.55;98980.25;1087336;54;1386;-81
2023/10/14 01:06:23;;;;;;;;;;;;;;;23.25;40.82;98982.09;1087188;47;1003;-80
2023/10/14 01:07:26;;;;;;;;;;;;;;;23.13;41.41;98976.75;1087434;47;964;-80
2023/10/14 01:08:29;;;;;;;;;;;;;;;23.15;41.66;98982.75;1087404;54;1040;-80
2023/10/14 01:09:48;;;;;;;;;;;;;;;23.20;41.22;98984.72;1087149;47;1115;-80
2023/10/14 01:10:50;;;;;;;;;;;;;;;23.16;41.47;98968.03;1087340;54;1327;-80
2023/10/14 01:11:55;;;;;;;;;;;;;;;23.09;41.89;98983.75;1087546;47;995;-80
2023/10/14 01:12:56;;;;;;;;;;;;;;;23.15;41.84;98974.56;1087412;47;941;-80
2023/10/14 01:14:05;;;;;;;;;;;;;;;23.10;42.22;98979.13;1087232;54;1446;-79
2023/10/14 01:15:13;;;;;;;;;;;;;;;23.09;42.00;98972.88;1087525;54;1367;-79
2023/10/14 01:16:24;;;;;;;;;;;;;;;23.10;42.18;98979.13;1087505;54;1089;-80
2023/10/14 01:17:29;;;;;;;;;;;;;;;23.14;42.19;98970.22;1087499;47;1021;-80
2023/10/14 01:18:34;;;;;;;;;;;;;;;23.13;42.39;98974.00;1087618;47;1199;-80
2023/10/14 01:19:37;;;;;;;;;;;;;;;23.14;42.55;98970.22;1087446;46;1024;-80
2023/10/14 01:20:50;;;;;;;;;;;;;;;23.16;42.30;98965.31;1087206;47;1849;-79
2023/10/14 01:21:52;;;;;;;;;;;;;;;23.07;42.87;98972.28;1087385;47;1363;-80
2023/10/14 01:23:06;;;;;;;;;;;;;;;23.00;42.94;98975.19;1087588;54;1074;-80
2023/10/14 01:24:16;;;;;;;;;;;;;;;23.06;42.86;98971.47;1087713;47;1050;-80
2023/10/14 01:25:24;;;;;;;;;;;;;;;23.05;43.24;98969.81;1087846;54;1395;-80
2023/10/14 01:26:25;;;;;;;;;;;;;;;23.08;43.18;98976.66;1087489;54;1026;-80
2023/10/14 01:27:34;;;;;;;;;;;;;;;23.08;43.20;98968.47;1087315;54;1551;-79
2023/10/14 01:28:42;;;;;;;;;;;;;;;23.09;43.39;98961.97;1087886;54;1378;-81
2023/10/14 01:29:45;;;;;;;;;;;;;;;23.02;43.76;98966.78;1087540;54;1066;-79
2023/10/14 01:30:55;;;;;;;;;;;;;;;23.03;43.63;98963.00;1087464;54;1421;-80
2023/10/14 01:32:10;;;;;;;;;;;;;;;23.00;43.90;98955.31;1087436;54;1243;-80
2023/10/14 01:33:12;;;;;;;;;;;;;;;23.04;43.64;98964.63;1087319;54;1011;-79
2023/10/14 01:34:28;;;;;;;;;;;;;;;22.99;44.13;98964.56;1087601;47;976;-81
2023/10/14 01:35:31;;;;;;;;;;;;;;;22.95;44.23;98957.97;1087533;47;1409;-79
2023/10/14 01:36:37;;;;;;;;;;;;;;;22.98;43.97;98955.56;1087477;46;977;-81
2023/10/14 01:37:38;;;;;;;;;;;;;;;22.99;44.18;98956.38;1087426;47;905;-79
2023/10/14 01:38:51;;;;;;;;;;;;;;;22.96;44.25;98951.44;1086952;54;1641;-79
2023/10/14 01:39:56;;;;;;;;;;;;;;;22.97;44.32;98958.53;1086394;47;1861;-80
2023/10/14 01:41:04;;;;;;;;;;;;;;;22.97;44.43;98953.06;1087245;54;1071;-80
2023/10/14 01:42:08;;;;;;;;;;;;;;;22.88;44.57;98953.53;1087447;47;982;-80
2023/10/14 01:43:11;;;;;;;;;;;;;;;22.92;44.58;98958.47;1087385;54;1062;-80
2023/10/14 01:44:21;;;;;;;;;;;;;;;22.89;44.93;98954.38;1087411;47;922;-80
2023/10/14 01:45:23;;;;;;;;;;;;;;;22.79;45.40;98946.88;1087482;54;1346;-80
2023/10/14 01:46:30;;;;;;;;;;;;;;;22.83;45.32;98953.47;1087726;54;1031;-81
2023/10/14 01:47:32;;;;;;;;;;;;;;;22.82;45.21;98946.38;1087945;54;1074;-81
2023/10/14 01:48:38;;;;;;;;;;;;;;;22.87;45.17;98943.69;1087622;47;892;-79
2023/10/14 01:49:38;;;;;;;;;;;;;;;22.74;45.37;98952.25;1087174;54;1451;-80
2023/10/14 01:50:44;;;;;;;;;;;;;;;22.79;45.59;98957.75;1087323;47;960;-80
2023/10/14 01:52:10;;;;;;;;;;;;;;;22.69;46.01;98946.72;1088111;54;1169;-80
2023/10/14 01:53:17;;;;;;;;;;;;;;;22.73;45.82;98954.13;1088394;54;911;-82
2023/10/14 01:54:22;;;;;;;;;;;;;;;22.64;45.80;98957.56;1088489;47;977;-82
2023/10/14 01:55:24;;;;;;;;;;;;;;;22.71;45.60;98950.88;1088417;47;1332;-81
2023/10/14 01:56:30;;;;;;;;;;;;;;;22.69;45.93;98944.00;1088355;54;1011;-81
2023/10/14 01:57:31;;;;;;;;;;;;;;;22.61;45.95;98944.44;1088421;47;1007;-81
2023/10/14 01:58:37;;;;;;;;;;;;;;;22.64;45.87;98947.47;1088361;54;977;-82
2023/10/14 01:59:39;;;;;;;;;;;;;;;22.61;45.92;98944.44;1088389;54;959;-81
2023/10/14 02:00:46;;;;;;;;;;;;;;;22.60;45.83;98946.34;1088492;54;1847;-82
2023/10/14 02:01:47;;;;;;;;;;;;;;;22.61;45.94;98949.88;1088273;54;990;-81
2023/10/14 02:03:08;;;;;;;;;;;;;;;22.50;46.11;98960.63;1088223;47;938;-81
2023/10/14 02:04:10;;;;;;;;;;;;;;;22.59;46.06;98950.13;1088129;54;1038;-79
2023/10/14 02:05:15;;;;;;;;;;;;;;;22.57;45.97;98947.69;1088177;47;1301;-80
2023/10/14 02:06:16;;;;;;;;;;;;;;;22.60;46.12;98949.06;1088151;47;876;-81
2023/10/14 02:07:26;;;;;;;;;;;;;;;22.54;46.14;98953.63;1088275;47;1041;-81
2023/10/14 02:08:27;;;;;;;;;;;;;;;22.54;45.95;98953.63;1088247;54;1007;-81
2023/10/14 02:09:30;;;;;;;;;;;;;;;22.50;46.42;98951.66;1087844;47;1156;-79
2023/10/14 02:10:35;;;;;;;;;;;;;;;22.46;46.20;98945.88;1087658;54;1166;-79
2023/10/14 02:11:36;;;;;;;;;;;;;;;22.48;46.41;98941.00;1087536;47;986;-80
2023/10/14 02:12:42;;;;;;;;;;;;;;;22.54;45.99;98929.09;1087736;54;900;-82
2023/10/14 02:13:42;;;;;;;;;;;;;;;22.40;46.63;98933.25;1087539;47;968;-81
2023/10/14 02:14:57;;;;;;;;;;;;;;;22.47;46.33;98931.19;1087654;54;1387;-80
2023/10/14 02:16:06;;;;;;;;;;;;;;;22.46;46.47;98929.53;1087483;54;1070;-81
2023/10/14 02:17:10;;;;;;;;;;;;;;;22.49;45.98;98931.75;1087657;47;878;-80
2023/10/14 02:18:12;;;;;;;;;;;;;;;22.52;45.92;98936.69;1087707;54;1007;-80
2023/10/14 02:19:36;;;;;;;;;;;;;;;22.53;46.03;98935.63;1087588;47;1120;-82
2023/10/14 02:20:45;;;;;;;;;;;;;;;22.38;46.72;98940.81;1087493;47;1850;-80
2023/10/14 02:21:57;;;;;;;;;;;;;;;22.42;46.24;98942.00;1087612;54;1039;-80
2023/10/14 02:22:58;;;;;;;;;;;;;;;22.38;46.74;98935.38;1087829;54;996;-80
2023/10/14 02:24:00;;;;;;;;;;;;;;;22.38;46.40;98940.81;1087878;47;1453;-81
2023/10/14 02:25:06;;;;;;;;;;;;;;;22.32;46.79;98948.09;1087509;54;1407;-80
2023/10/14 02:26:22;;;;;;;;;;;;;;;22.36;46.92;98938.34;1087816;47;1272;-80
2023/10/14 02:27:26;;;;;;;;;;;;;;;22.36;46.69;98938.34;1087346;54;1087;-80
2023/10/14 02:28:35;;;;;;;;;;;;;;;22.35;47.06;98936.69;1087717;54;931;-80
2023/10/14 02:29:41;;;;;;;;;;;;;;;22.38;46.55;98930.75;1087263;46;1276;-79
2023/10/14 02:31:10;;;;;;;;;;;;;;;22.34;46.97;98939.66;1087854;54;1103;-81
2023/10/14 02:32:14;;;;;;;;;;;;;;;22.36;46.76;98942.97;1087769;54;1197;-80
2023/10/14 02:33:15;;;;;;;;;;;;;;;22.32;47.03;98939.09;1087022;54;1083;-79
2023/10/14 02:34:18;;;;;;;;;;;;;;;22.21;47.12;98941.66;1087106;47;1494;-79
2023/10/14 02:35:23;;;;;;;;;;;;;;;22.23;47.43;98944.94;1087428;47;1343;-81
2023/10/14 02:36:29;;;;;;;;;;;;;;;22.27;47.26;98937.94;1087513;54;1521;-80
2023/10/14 02:37:32;;;;;;;;;;;;;;;22.24;47.07;98946.59;1087356;47;1027;-80
2023/10/14 02:38:34;;;;;;;;;;;;;;;22.19;47.62;98949.25;1087253;47;1376;-80
2023/10/14 02:39:35;;;;;;;;;;;;;;;22.25;47.39;98947.41;1087426;47;992;-80
2023/10/14 02:40:41;;;;;;;;;;;;;;;22.19;47.85;98938.38;1087481;47;1893;-80
2023/10/14 02:41:44;;;;;;;;;;;;;;;22.22;47.91;98947.94;1087445;46;1051;-80
2023/10/14 02:42:47;;;;;;;;;;;;;;;22.24;47.74;98946.59;1087783;54;993;-81
2023/10/14 02:43:48;;;;;;;;;;;;;;;22.15;48.11;98950.00;1087490;47;1027;-80
2023/10/14 02:44:54;;;;;;;;;;;;;;;22.08;48.38;98947.44;1087785;54;1365;-80
2023/10/14 02:46:00;;;;;;;;;;;;;;;22.13;47.95;98933.91;1087702;47;1060;-81
2023/10/14 02:47:04;;;;;;;;;;;;;;;22.11;47.96;98941.47;1087532;54;949;-80
2023/10/14 02:48:11;;;;;;;;;;;;;;;22.09;48.46;98946.38;1087319;47;1042;-80
2023/10/14 02:49:14;;;;;;;;;;;;;;;22.10;48.42;98939.88;1087354;47;1405;-81
2023/10/14 02:50:24;;;;;;;;;;;;;;;22.11;48.32;98944.19;1087811;54;1082;-80
2023/10/14 02:51:35;;;;;;;;;;;;;;;22.12;48.51;98938.53;1087796;54;1102;-80
2023/10/14 02:52:39;;;;;;;;;;;;;;;22.07;48.45;98948.50;1087649;47;920;-81
2023/10/14 02:53:42;;;;;;;;;;;;;;;22.05;48.50;98945.19;1088163;54;941;-80
2023/10/14 02:54:54;;;;;;;;;;;;;;;22.08;48.60;98940.09;1087655;47;1243;-80
2023/10/14 02:56:04;;;;;;;;;;;;;;;22.14;48.59;98938.28;1088059;54;1074;-80
2023/10/14 02:57:12;;;;;;;;;;;;;;;22.15;48.18;98947.28;1087347;47;1070;-81
2023/10/14 02:58:20;;;;;;;;;;;;;;;22.12;48.35;98948.56;1087764;47;1063;-81
2023/10/14 02:59:35;;;;;;;;;;;;;;;21.99;48.90;98938.03;1088014;54;1378;-80
2023/10/14 03:00:39;;;;;;;;;;;;;;;22.08;48.71;98931.13;1088086;47;1856;-81
2023/10/14 03:01:41;;;;;;;;;;;;;;;22.08;49.03;98936.56;1088177;46;951;-81
2023/10/14 03:04:08;;;;;;;;;;;;;;;22.10;48.79;98934.41;1087997;47;1008;-80
2023/10/14 03:05:33;;;;;;;;;;;;;;;22.07;49.11;98932.19;1087880;54;1235;-81
2023/10/14 03:06:46;;;;;;;;;;;;;;;22.01;49.25;98942.16;1087801;54;1244;-81
2023/10/14 03:07:50;;;;;;;;;;;;;;;21.95;50.25;98937.72;1088108;47;1560;-81
2023/10/14 03:09:00;;;;;;;;;;;;;;;21.90;50.29;98943.91;1088365;47;1496;-81
2023/10/14 03:10:11;;;;;;;;;;;;;;;21.92;49.97;98944.44;1088372;46;1052;-81
2023/10/14 03:11:21;;;;;;;;;;;;;;;21.87;50.53;98946.28;1088275;54;1201;-81
2023/10/14 03:12:23;;;;;;;;;;;;;;;21.79;50.62;98944.78;1088304;54;947;-81
2023/10/14 03:13:29;;;;;;;;;;;;;;;21.85;50.68;98951.94;1088271;54;1561;-80
2023/10/14 03:14:30;;;;;;;;;;;;;;;21.84;50.56;98936.69;1088369;54;956;-80
2023/10/14 03:15:31;;;;;;;;;;;;;;;21.85;50.58;98941.06;1088314;54;1245;-81
2023/10/14 03:16:36;;;;;;;;;;;;;;;21.84;51.00;98936.69;1087737;47;957;-81
2023/10/14 03:17:40;;;;;;;;;;;;;;;21.87;50.62;98946.28;1087732;54;1073;-82
2023/10/14 03:18:52;;;;;;;;;;;;;;;21.75;51.10;98949.88;1087878;54;1027;-79
2023/10/14 03:19:56;;;;;;;;;;;;;;;21.84;51.27;98944.84;1088091;47;940;-81
2023/10/14 03:21:01;;;;;;;;;;;;;;;21.84;51.04;98936.69;1087879;47;1842;-82
2023/10/14 03:22:07;;;;;;;;;;;;;;;21.84;50.82;98931.25;1087956;54;959;-81
2023/10/14 03:23:18;;;;;;;;;;;;;;;21.71;51.63;98937.03;1087933;54;1023;-81
2023/10/14 03:24:23;;;;;;;;;;;;;;;21.76;51.54;98932.50;1087980;47;949;-82
2023/10/14 03:25:27;;;;;;;;;;;;;;;21.84;50.90;98938.59;1087662;54;1405;-81
2023/10/14 03:26:35;;;;;;;;;;;;;;;21.83;51.02;98929.59;1087639;47;898;-80
2023/10/14 03:27:39;;;;;;;;;;;;;;;21.83;51.26;98931.50;1087764;54;1366;-81
2023/10/14 03:28:44;;;;;;;;;;;;;;;21.69;51.84;98941.88;1087789;47;876;-81
2023/10/14 03:29:54;;;;;;;;;;;;;;;21.77;51.39;98936.84;1087639;46;1156;-80
2023/10/14 03:30:56;;;;;;;;;;;;;;;21.78;51.63;98937.69;1087828;54;1326;-80
2023/10/14 03:32:00;;;;;;;;;;;;;;;21.79;51.54;98933.91;1087640;46;1067;-80
2023/10/14 03:33:01;;;;;;;;;;;;;;;21.80;51.77;98924.69;1087725;47;1150;-80
2023/10/14 03:34:09;;;;;;;;;;;;;;;21.79;51.61;98925.75;1087856;47;976;-81
2023/10/14 03:35:12;;;;;;;;;;;;;;;21.76;51.57;98931.66;1087732;54;1346;-80
2023/10/14 03:36:22;;;;;;;;;;;;;;;21.80;51.34;98930.13;1087869;54;1091;-80
2023/10/14 03:37:25;;;;;;;;;;;;;;;21.76;51.42;98921.63;1087874;46;982;-80
2023/10/14 03:38:38;;;;;;;;;;;;;;;21.70;51.98;98925.31;1087951;54;1361;-79
2023/10/14 03:39:40;;;;;;;;;;;;;;;21.72;51.93;98922.38;1087903;46;1039;-80
2023/10/14 03:41:10;;;;;;;;;;;;;;;21.70;52.07;98924.50;1087632;47;1854;-79
2023/10/14 03:42:15;;;;;;;;;;;;;;;21.75;51.75;98914.53;1087871;46;972;-80
2023/10/14 03:43:17;;;;;;;;;;;;;;;21.63;52.43;98911.06;1088128;46;1009;-79
2023/10/14 03:44:22;;;;;;;;;;;;;;;21.65;52.38;98917.06;1087779;54;861;-79
2023/10/14 03:45:28;;;;;;;;;;;;;;;21.71;51.88;98904.41;1087390;54;1453;-80
2023/10/14 03:46:32;;;;;;;;;;;;;;;21.63;52.61;98909.16;1088210;47;1094;-80
2023/10/14 03:47:37;;;;;;;;;;;;;;;21.70;52.34;98903.56;1088059;54;883;-80
2023/10/14 03:48:45;;;;;;;;;;;;;;;21.68;52.70;98896.72;1087761;54;970;-80
2023/10/14 03:49:55;;;;;;;;;;;;;;;21.68;52.26;98905.69;1087948;54;1373;-80
2023/10/14 03:51:02;;;;;;;;;;;;;;;21.69;52.57;98896.47;1087692;47;1138;-78
2023/10/14 03:52:10;;;;;;;;;;;;;;;21.61;53.14;98897.72;1087827;54;998;-79
2023/10/14 03:53:12;;;;;;;;;;;;;;;21.55;53.06;98890.50;1087854;46;958;-79
2023/10/14 03:54:23;;;;;;;;;;;;;;;21.52;53.21;98896.44;1087704;47;1265;-79
2023/10/14 03:55:25;;;;;;;;;;;;;;;21.57;53.00;98896.50;1087572;54;1342;-80
2023/10/14 03:56:31;;;;;;;;;;;;;;;21.61;53.23;98896.88;1087775;54;1359;-79
2023/10/14 03:57:37;;;;;;;;;;;;;;;21.62;53.04;98899.38;1087715;47;930;-78
2023/10/14 03:58:41;;;;;;;;;;;;;;;21.61;53.06;98911.31;1087771;54;856;-78
2023/10/14 03:59:48;;;;;;;;;;;;;;;21.51;53.57;98922.78;1087741;54;974;-79
2023/10/14 04:00:52;;;;;;;;;;;;;;;21.52;54.08;98948.09;1087619;54;1877;-79
2023/10/14 04:01:57;;;;;;;;;;;;;;;21.40;55.48;98960.91;1087458;54;1072;-78
2023/10/14 04:03:00;;;;;;;;;;;;;;;21.15;57.59;98994.66;1087565;54;1081;-80
2023/10/14 04:04:14;;;;;;;;;;;;;;;20.96;60.88;99021.97;1087956;47;1051;-81
2023/10/14 04:05:19;;;;;;;;;;;;;;;20.72;61.04;99070.00;1088047;54;1304;-79
2023/10/14 04:06:20;;;;;;;;;;;;;;;20.45;62.84;99069.63;1086542;54;1238;-79
2023/10/14 04:07:28;;;;;;;;;;;;;;;19.97;64.73;99088.47;1086666;54;1039;-78
2023/10/14 04:08:30;;;;;;;;;;;;;;;19.87;66.18;99105.31;1086815;47;1494;-80
2023/10/14 04:09:39;;;;;;;;;;;;;;;19.69;66.95;99108.84;1087680;54;1148;-79
2023/10/14 04:10:45;;;;;;;;;;;;;;;19.38;67.89;99096.28;1087625;47;1008;-78
2023/10/14 04:11:52;;;;;;;;;;;;;;;18.92;68.80;99092.94;1087730;54;914;-79
2023/10/14 04:13:04;;;;;;;;;;;;;;;18.71;69.75;99093.16;1087863;54;1014;-78
2023/10/14 04:14:08;;;;;;;;;;;;;;;18.63;70.14;99095.28;1087935;47;995;-78
2023/10/14 04:15:24;;;;;;;;;;;;;;;18.52;71.24;99094.13;1087687;54;1487;-80
2023/10/14 04:16:37;;;;;;;;;;;;;;;18.51;70.58;99093.31;1087709;47;964;-78
2023/10/14 04:17:38;;;;;;;;;;;;;;;18.46;70.97;99084.19;1087878;54;976;-79
2023/10/14 04:18:46;;;;;;;;;;;;;;;18.46;70.05;99082.31;1087684;47;948;-78
2023/10/14 04:19:53;;;;;;;;;;;;;;;18.49;70.28;99079.16;1087712;47;1014;-79
2023/10/14 04:21:13;;;;;;;;;;;;;;;18.44;70.19;99076.28;1087640;47;1864;-79
2023/10/14 04:22:31;;;;;;;;;;;;;;;18.34;69.58;99076.78;1087557;47;943;-78
2023/10/14 04:23:38;;;;;;;;;;;;;;;18.36;68.85;99084.66;1087702;47;939;-80
2023/10/14 04:24:45;;;;;;;;;;;;;;;18.32;68.94;99078.88;1087040;47;1403;-77
2023/10/14 04:26:01;;;;;;;;;;;;;;;18.30;68.64;99069.31;1087589;47;979;-78
2023/10/14 04:27:16;;;;;;;;;;;;;;;18.34;68.72;99073.22;1087383;47;1099;-79
2023/10/14 04:28:30;;;;;;;;;;;;;;;18.44;68.33;99070.88;1087555;54;1110;-78
2023/10/14 04:29:39;;;;;;;;;;;;;;;18.43;68.35;99074.63;1087469;47;963;-79
2023/10/14 04:30:42;;;;;;;;;;;;;;;18.41;68.43;99074.03;1087026;54;1126;-78
2023/10/14 04:31:54;;;;;;;;;;;;;;;18.38;68.55;99072.56;1085575;47;1314;-79
2023/10/14 04:33:04;;;;;;;;;;;;;;;18.33;68.90;99068.88;1085764;47;1059;-78
2023/10/14 04:34:06;;;;;;;;;;;;;;;18.31;69.22;99066.41;1085223;54;1082;-79
2023/10/14 04:35:12;;;;;;;;;;;;;;;18.29;69.42;99075.78;1085880;54;1397;-78
2023/10/14 04:36:36;;;;;;;;;;;;;;;18.31;69.29;99058.28;1086523;54;1585;-79
2023/10/14 04:37:50;;;;;;;;;;;;;;;18.46;69.57;99084.19;1086440;54;1078;-79
2023/10/14 04:39:05;;;;;;;;;;;;;;;18.37;68.97;99060.09;1086364;47;1153;-78
2023/10/14 04:40:16;;;;;;;;;;;;;;;18.31;69.23;99060.97;1087679;47;935;-80
2023/10/14 04:41:24;;;;;;;;;;;;;;;18.40;69.33;99053.44;1087523;47;1868;-80
2023/10/14 04:42:38;;;;;;;;;;;;;;;18.45;69.11;99075.25;1087656;54;1034;-78
2023/10/14 04:44:11;;;;;;;;;;;;;;;18.44;69.04;99054.63;1087668;46;928;-80
2023/10/14 04:45:31;;;;;;;;;;;;;;;18.35;68.77;99067.63;1087642;47;1394;-79
2023/10/14 04:46:45;;;;;;;;;;;;;;;18.33;68.55;99071.56;1087378;47;993;-79
2023/10/14 04:47:47;;;;;;;;;;;;;;;18.30;69.13;99058.50;1087583;54;1330;-79
2023/10/14 04:48:58;;;;;;;;;;;;;;;18.31;68.70;99071.81;1087889;54;933;-79
2023/10/14 04:50:08;;;;;;;;;;;;;;;18.32;68.41;99072.66;1087480;47;990;-79
2023/10/14 04:51:15;;;;;;;;;;;;;;;18.38;68.17;99069.06;1087961;54;875;-78
2023/10/14 04:52:18;;;;;;;;;;;;;;;18.42;68.18;99075.66;1087678;54;945;-80
2023/10/14 04:53:26;;;;;;;;;;;;;;;18.36;68.26;99073.84;1087298;47;909;-79
2023/10/14 04:54:27;;;;;;;;;;;;;;;18.38;68.09;99077.16;1087281;47;1027;-79
2023/10/14 04:55:35;;;;;;;;;;;;;;;18.34;67.97;99070.53;1087438;54;1333;-78
2023/10/14 04:56:36;;;;;;;;;;;;;;;18.39;67.71;99076.94;1087501;46;1065;-79
2023/10/14 04:57:41;;;;;;;;;;;;;;;18.37;67.59;99080.91;1087345;47;976;-80
2023/10/14 04:58:45;;;;;;;;;;;;;;;18.37;67.53;99083.63;1087206;47;1003;-79
2023/10/14 04:59:51;;;;;;;;;;;;;;;18.46;67.83;99090.44;1087196;54;1073;-79
2023/10/14 05:01:00;;;;;;;;;;;;;;;18.47;67.63;99091.25;1087205;54;1140;-80
2023/10/14 05:02:03;;;;;;;;;;;;;;;18.49;67.26;99095.41;1087325;47;1043;-80
2023/10/14 05:03:09;;;;;;;;;;;;;;;18.47;67.09;99102.91;1087467;54;935;-78
2023/10/14 05:04:13;;;;;;;;;;;;;;;18.58;67.00;99097.84;1086853;46;1017;-78
2023/10/14 05:05:19;;;;;;;;;;;;;;;18.55;67.17;99094.50;1086970;54;1355;-79
2023/10/14 05:06:21;;;;;;;;;;;;;;;18.58;67.05;99097.84;1087072;54;1098;-79
2023/10/14 05:07:28;;;;;;;;;;;;;;;18.53;66.89;99112.03;1087569;47;1401;-80
2023/10/14 05:10:06;;;;;;;;;;;;;;;18.58;67.01;99114.91;1088044;47;902;-79
2023/10/14 05:11:12;;;;;;;;;;;;;;;18.58;66.91;99116.78;1087691;46;927;-78
2023/10/14 05:12:18;;;;;;;;;;;;;;;18.60;66.58;99120.91;1088093;46;974;-78
2023/10/14 05:13:19;;;;;;;;;;;;;;;18.67;66.33;99112.75;1088186;54;1005;-78
2023/10/14 05:14:33;;;;;;;;;;;;;;;18.62;66.89;99110.72;1087701;47;874;-80
2023/10/14 05:15:39;;;;;;;;;;;;;;;18.53;66.54;99114.75;1087375;46;1417;-79
2023/10/14 05:16:55;;;;;;;;;;;;;;;18.51;67.25;99119.53;1087694;47;1099;-79
2023/10/14 05:18:00;;;;;;;;;;;;;;;18.47;67.24;99112.88;1087593;47;923;-79
2023/10/14 05:19:06;;;;;;;;;;;;;;;18.54;66.92;99119.91;1087778;54;900;-79
2023/10/14 05:20:16;;;;;;;;;;;;;;;18.53;66.78;99123.66;1087611;46;899;-79
2023/10/14 05:21:35;;;;;;;;;;;;;;;18.54;66.99;99128.03;1087530;47;1864;-79
2023/10/14 05:22:41;;;;;;;;;;;;;;;18.57;66.92;99123.25;1087768;54;989;-77
2023/10/14 05:23:42;;;;;;;;;;;;;;;18.53;66.92;99123.66;1087276;54;1062;-78
2023/10/14 05:24:48;;;;;;;;;;;;;;;18.55;66.73;99115.34;1087510;54;1347;-78
2023/10/14 05:25:56;;;;;;;;;;;;;;;18.44;67.09;99124.97;1086870;46;1488;-79
2023/10/14 05:26:59;;;;;;;;;;;;;;;18.49;66.88;99124.31;1086213;47;1012;-78
2023/10/14 05:28:06;;;;;;;;;;;;;;;18.46;66.96;99122.09;1086724;54;1106;-80
2023/10/14 05:29:16;;;;;;;;;;;;;;;18.46;67.08;99122.91;1087606;46;976;-79
2023/10/14 05:30:21;;;;;;;;;;;;;;;18.56;66.94;99117.00;1087602;47;925;-81
2023/10/14 05:31:23;;;;;;;;;;;;;;;18.52;67.09;99126.59;1087155;47;1138;-80
2023/10/14 05:32:30;;;;;;;;;;;;;;;18.64;66.98;99124.00;1087743;47;932;-80
2023/10/14 05:33:31;;;;;;;;;;;;;;;18.49;66.76;99111.66;1087644;47;1173;-81
2023/10/14 05:34:34;;;;;;;;;;;;;;;18.51;66.66;99103.28;1087605;47;1447;-80
2023/10/14 05:35:38;;;;;;;;;;;;;;;18.51;67.11;99114.97;1087492;47;1283;-79
2023/10/14 05:36:42;;;;;;;;;;;;;;;18.50;67.44;99118.72;1087296;47;954;-80
2023/10/14 05:37:43;;;;;;;;;;;;;;;18.45;67.34;99123.13;1087447;47;955;-79
2023/10/14 05:38:47;;;;;;;;;;;;;;;18.42;67.55;99123.56;1087608;54;972;-80
2023/10/14 05:39:48;;;;;;;;;;;;;;;18.39;67.24;99122.94;1087135;47;1086;-79
2023/10/14 05:40:55;;;;;;;;;;;;;;;18.38;66.96;99117.75;1087298;47;1031;-80
2023/10/14 05:41:58;;;;;;;;;;;;;;;18.45;67.08;99115.81;1086905;54;1916;-79
2023/10/14 05:43:01;;;;;;;;;;;;;;;18.43;67.16;99147.69;1087120;47;1094;-79
2023/10/14 05:44:04;;;;;;;;;;;;;;;18.49;66.79;99125.19;1087014;47;1343;-79
2023/10/14 05:45:11;;;;;;;;;;;;;;;18.42;67.04;99123.56;1087499;54;1391;-79
2023/10/14 05:46:12;;;;;;;;;;;;;;;18.40;67.00;99137.31;1087462;47;893;-79
2023/10/14 05:47:16;;;;;;;;;;;;;;;18.40;67.43;99121.88;1087326;54;881;-78
2023/10/14 05:48:26;;;;;;;;;;;;;;;18.39;67.30;99119.41;1087447;47;983;-79
2023/10/14 05:49:31;;;;;;;;;;;;;;;18.46;67.09;99122.91;1087217;54;969;-79
2023/10/14 05:50:33;;;;;;;;;;;;;;;18.41;66.92;99125.44;1087491;54;977;-80
2023/10/14 05:51:36;;;;;;;;;;;;;;;18.49;66.83;99132.44;1087227;47;1014;-81
2023/10/14 05:52:38;;;;;;;;;;;;;;;18.44;67.11;99130.41;1087504;46;1360;-80
2023/10/14 05:54:56;;;;;;;;;;;;;;;18.51;66.84;99135.78;1087507;47;1262;-79
2023/10/14 05:55:58;;;;;;;;;;;;;;;18.47;66.88;99134.53;1086933;47;1075;-80